Latest  Newer  Older  Last 2 hours slideshow  Last 24 hours slideshow  Refresh every 5 minutes 
Current image  Latest image  Rain/snow radar  Cloud coverage sat images 

All time is UTC (add 2 hours to UTC in wintertime, 3 hours to UTC in DST for Latvia local time)

2022/08/11 23:50 EVRA 112350Z 19003KT 9999 BCFG NSC 12/12 Q1025 NOSIG
2022/08/11 23:50 EVLA 112350Z AUTO 05001KT CAVOK 11/10 Q1025
2022/08/11 23:50 EVVA 112350Z AUTO 16003KT 0550 FG NSC 14/14 Q1024
2022/08/11 23:50 EYKA 112350Z AUTO 00000KT 9999 NCD 14/11 Q1025
2022/08/11 23:50 EYPA 112350Z 01003KT 330V050 CAVOK 13/12 Q1026
2022/08/11 23:50 EYSA 112350Z AUTO 00000KT 9999NDV NCD 13/12 Q1026
2022/08/11 23:50 EYVI 112350Z VRB01KT CAVOK 17/12 Q1025 NOSIG
2022/08/11 15:20 EEKA 111520Z 22009KT 160V270 CAVOK 23/15 Q1021
2022/08/11 23:50 EEKE 112350Z AUTO 22005KT 180V250 9999NDV NCD 18/17 Q1023
2022/08/11 23:50 EEPU 112350Z AUTO 23006KT 9999 NCD 16/15 Q1023
2022/08/11 23:50 EETN 112350Z VRB02KT CAVOK 16/15 Q1022
2022/08/11 23:50 EETU 112350Z AUTO 22004KT 190V250 9999 NCD 14/10 Q1024
CD  STATION         ICAO  IATA  SYNOP   LAT     LONG   ELEV   M  N  V  U  A  C
   RIGA AIRPORT     EVRA               56 55N  023 58E   10   X     T          6 LV
   LIELVARDE        EVGA               56 47N  024 51E   61   X     T          7 LV
   LIEPAJA INTL     EVLA        26406  56 31N  021 06E    4   X                8 LV
   VENTPILS         EVVA               57 21N  021 33E    6   X                8 LV
   KAUNAS           EYKA               54 54N  023 55E   77   X     T          6 LT
   PALANGA INTL     EYPA               55 55N  021 03E   10   X                6 LT
   SIAULIAI INTL    EYSA               55 54N  023 24E  135   X     T          6 LT
   VILNIUS INTL     EYVI        26730  54 38N  025 17E  197   X     T          6 LT
   AMARI AIR BASE   EEEI               59 16N  024 12E   19   X     T          7 EE
   KARDLA           EEKA        26116  58 59N  022 50E    4   X                8 EE
   KURESSAARE       EEKE               58 14N  022 31E    4   X                8 EE
   PARNU            EEPU               58 25N  024 28E   14   X                8 EE
   TALLINN          EETN        26038  59 24N  024 49E   40   X     T          8 EE
   TARTU            EETU               58 19N  026 41E   67   X                8 EE

!   CD = 2 letter state (province) abbreviation
!   STATION = 16 character station long name
!   ICAO = 4-character international id
!   IATA = 3-character (FAA) id
!   SYNOP = 5-digit international synoptic number
!   LAT = Latitude (degrees minutes)
!   LON = Longitude (degree minutes)
!   ELEV = Station elevation (meters)
!   M = METAR reporting station.   Also Z=obsolete? site
!   N = NEXRAD (WSR-88D) Radar site
!   V = Aviation-specific flag (V=AIRMET/SIGMET end point, A=ARTCC T=TAF U=T+V)
!   U = Upper air (rawinsonde=X) or Wind Profiler (W) site
!   A = Auto (A=ASOS, W=AWOS, M=Meso, H=Human, G=Augmented) (H/G not yet impl.)
!   C = Office type F=WFO/R=RFC/C=NCEP Center
!   Digit that follows is a priority for plotting (0=highest)
!   Country code (2-char) is last column